createdAt,value
2023-02-19T00:03:06.104Z,100170.16
2023-02-19T00:08:08.176Z,100174.47
2023-02-19T00:13:10.156Z,100168.25
2023-02-19T00:18:12.146Z,100163.00
2023-02-19T00:23:14.139Z,100164.66
2023-02-19T00:28:16.195Z,100163.69
2023-02-19T00:33:19.067Z,100156.63
2023-02-19T00:38:21.032Z,100167.03
2023-02-19T00:43:23.099Z,100156.47
2023-02-19T00:48:25.110Z,100137.97
2023-02-19T00:53:27.125Z,100145.78
2023-02-19T00:58:29.128Z,100150.94
2023-02-19T01:03:31.261Z,100154.34
2023-02-19T01:08:33.944Z,100156.91
2023-02-19T01:13:36.687Z,100148.06
2023-02-19T01:18:38.755Z,100142.75
2023-02-19T01:23:41.447Z,100148.78
2023-02-19T01:28:44.450Z,100144.28
2023-02-19T01:33:47.292Z,100143.34
2023-02-19T01:38:50.055Z,100141.50
2023-02-19T01:44:18.513Z,100137.97
2023-02-19T01:49:30.697Z,100133.56
2023-02-19T01:54:36.976Z,100127.34
2023-02-19T01:59:39.616Z,100126.38
2023-02-19T02:04:42.237Z,100118.47
2023-02-19T02:10:05.678Z,100124.50
2023-02-19T02:15:09.009Z,100122.69
2023-02-19T02:20:20.313Z,100118.22
2023-02-19T02:25:39.484Z,100119.88
2023-02-19T02:30:50.490Z,100114.53
2023-02-19T02:36:07.714Z,100111.84
2023-02-19T02:41:10.798Z,100106.53
2023-02-19T02:46:20.996Z,100102.97
2023-02-19T02:51:31.293Z,100093.31
2023-02-19T02:56:35.006Z,100091.44
2023-02-19T03:02:11.817Z,100100.91
2023-02-19T03:07:14.095Z,100095.63
2023-02-19T03:12:38.376Z,100092.91
2023-02-19T03:18:05.218Z,100101.56
2023-02-19T03:23:11.697Z,100100.63
2023-02-19T03:28:17.990Z,100095.31
2023-02-19T03:33:27.534Z,100104.81
2023-02-19T03:38:37.955Z,100104.78
2023-02-19T03:43:52.908Z,100099.41
2023-02-19T03:49:01.825Z,100094.19
2023-02-19T03:54:10.757Z,100098.53
2023-02-19T03:59:33.528Z,100077.53
2023-02-19T04:04:40.275Z,100080.13
2023-02-19T04:09:47.867Z,100085.28
2023-02-19T04:14:55.310Z,100089.69
2023-02-19T04:20:01.421Z,100086.13
2023-02-19T04:25:04.322Z,100059.97
2023-02-19T04:30:08.776Z,100067.81
2023-02-19T04:35:11.428Z,100062.53
2023-02-19T04:40:13.583Z,100051.19
2023-02-19T04:45:17.644Z,100059.00
2023-02-19T04:50:19.797Z,100064.25
2023-02-19T04:55:22.482Z,100062.47
2023-02-19T05:00:27.715Z,100052.88
2023-02-19T05:05:32.549Z,100057.25
2023-02-19T05:10:35.187Z,100047.66
2023-02-19T05:15:40.538Z,100064.25
2023-02-19T05:20:47.072Z,100058.97
2023-02-19T05:25:49.885Z,100062.47
2023-02-19T05:30:53.698Z,100070.31
2023-02-19T05:35:56.428Z,100061.56
2023-02-19T05:41:08.780Z,100075.53
2023-02-19T05:46:13.877Z,100086.00
2023-02-19T05:51:18.200Z,100081.59
2023-02-19T05:56:26.701Z,100079.88
2023-02-19T06:01:30.314Z,100067.59
2023-02-19T06:06:32.466Z,100056.25
2023-02-19T06:11:35.420Z,100061.44
2023-02-19T06:16:38.071Z,100082.41
2023-02-19T06:21:40.284Z,100082.38
2023-02-19T06:26:44.059Z,100085.88
2023-02-19T06:31:46.998Z,100091.16
2023-02-19T06:36:50.017Z,100096.41
2023-02-19T06:41:56.244Z,100099.00
2023-02-19T06:46:58.336Z,100104.25
2023-02-19T06:52:01.017Z,100096.41
2023-02-19T06:57:03.669Z,100106.91
2023-02-19T07:02:05.945Z,100109.50
2023-02-19T07:07:12.322Z,100121.78
2023-02-19T07:12:14.896Z,100117.41
2023-02-19T07:17:17.609Z,100129.69
2023-02-19T07:22:20.249Z,100134.91
2023-02-19T07:27:23.380Z,100127.03
2023-02-19T07:32:26.170Z,100133.22
2023-02-19T07:37:31.469Z,100130.59
2023-02-19T07:42:33.828Z,100141.19
2023-02-19T07:47:36.000Z,100136.88
2023-02-19T07:52:38.387Z,100130.78
2023-02-19T07:57:40.466Z,100133.47
2023-02-19T08:03:01.002Z,100132.72
2023-02-19T08:08:08.555Z,100145.03
2023-02-19T08:13:23.147Z,100152.13
2023-02-19T08:18:29.185Z,100160.16
2023-02-19T08:23:31.308Z,100160.22
2023-02-19T08:28:33.952Z,100155.97
2023-02-19T08:33:39.571Z,100166.63
2023-02-19T08:38:41.874Z,100158.03
2023-02-19T08:43:45.267Z,100159.97
2023-02-19T08:48:49.078Z,100154.88
2023-02-19T08:53:51.725Z,100154.22
2023-02-19T08:58:54.411Z,100158.75
2023-02-19T09:03:56.592Z,100156.34
2023-02-19T09:08:59.301Z,100163.44
2023-02-19T09:14:02.543Z,100163.53
2023-02-19T09:19:05.396Z,100164.53
2023-02-19T09:24:09.072Z,100177.75
2023-02-19T09:29:11.624Z,100179.59
2023-02-19T09:34:13.865Z,100187.59
2023-02-19T09:39:16.202Z,100184.19
2023-02-19T09:44:36.369Z,100186.13
2023-02-19T09:49:41.710Z,100195.06
2023-02-19T09:54:45.785Z,100190.84
2023-02-19T10:00:10.637Z,100194.63
2023-02-19T10:05:17.242Z,100203.66
2023-02-19T10:10:29.885Z,100211.06
2023-02-19T10:16:00.991Z,100217.56
2023-02-19T10:21:06.024Z,100217.06
2023-02-19T10:26:15.558Z,100226.16
2023-02-19T10:31:23.822Z,100226.50
2023-02-19T10:36:32.113Z,100233.75
2023-02-19T10:41:44.022Z,100231.31
2023-02-19T10:46:50.991Z,100218.31
2023-02-19T10:51:58.391Z,100216.88
2023-02-19T10:57:35.032Z,100228.66
2023-02-19T11:02:39.525Z,100227.16
2023-02-19T11:08:00.253Z,100232.66
2023-02-19T11:13:08.426Z,100236.47
2023-02-19T11:18:13.609Z,100238.31
2023-02-19T11:23:19.960Z,100238.34
2023-02-19T11:28:39.231Z,100243.66
2023-02-19T11:34:00.784Z,100243.69
2023-02-19T11:39:18.485Z,100237.53
2023-02-19T11:44:47.041Z,100240.22
2023-02-19T11:49:50.353Z,100258.69
2023-02-19T11:55:02.174Z,100261.34
2023-02-19T12:00:27.719Z,100265.75
2023-02-19T12:05:35.591Z,100272.81
2023-02-19T12:10:44.408Z,100278.09
2023-02-19T12:15:46.629Z,100282.50
2023-02-19T12:21:28.433Z,100293.09
2023-02-19T12:27:06.318Z,100286.91
2023-02-19T12:32:27.998Z,100282.50
2023-02-19T12:37:43.233Z,100290.44
2023-02-19T12:43:03.824Z,100303.66
2023-02-19T12:48:16.537Z,100315.13
2023-02-19T12:53:35.749Z,100314.22
2023-02-19T12:58:51.331Z,100320.41
2023-02-19T13:04:12.732Z,100318.66
2023-02-19T13:09:41.922Z,100318.66
2023-02-19T13:14:51.693Z,100335.41
2023-02-19T13:20:01.803Z,100346.88
2023-02-19T13:25:07.791Z,100331.84
2023-02-19T13:30:39.366Z,100338.91
2023-02-19T13:36:06.462Z,100341.56
2023-02-19T13:41:27.043Z,100338.91
2023-02-19T13:46:41.565Z,100365.38
2023-02-19T13:51:53.892Z,100367.19
2023-02-19T13:57:30.452Z,100363.66
2023-02-19T14:02:36.238Z,100380.44
2023-02-19T14:07:53.579Z,100385.72
2023-02-19T14:13:03.014Z,100390.13
2023-02-19T14:18:45.770Z,100392.78
2023-02-19T14:23:55.042Z,100391.03
2023-02-19T14:29:01.028Z,100387.50
2023-02-19T14:34:19.575Z,100398.97
2023-02-19T14:39:34.172Z,100405.13
2023-02-19T14:44:49.479Z,100410.41
2023-02-19T14:50:18.411Z,100416.59
2023-02-19T14:55:35.708Z,100414.78
2023-02-19T15:00:41.059Z,100440.34
2023-02-19T15:05:47.910Z,100449.09
2023-02-19T15:10:51.882Z,100455.25
2023-02-19T15:15:56.323Z,100460.50
2023-02-19T15:21:03.760Z,100457.78
2023-02-19T15:26:23.115Z,100467.41
2023-02-19T15:31:27.848Z,100480.53
2023-02-19T15:36:35.370Z,100481.31
2023-02-19T15:41:39.098Z,100482.97
2023-02-19T15:46:43.972Z,100486.41
2023-02-19T15:52:00.507Z,100507.41
2023-02-19T15:57:08.540Z,100508.09
2023-02-19T16:02:15.520Z,100520.25
2023-02-19T16:07:32.655Z,100534.16
2023-02-19T16:12:35.875Z,100539.25
2023-02-19T16:17:38.853Z,100551.41
2023-02-19T16:22:43.756Z,100560.06
2023-02-19T16:27:46.962Z,100560.78
2023-02-19T16:32:50.006Z,100561.44
2023-02-19T16:38:00.860Z,100568.31
2023-02-19T16:43:07.336Z,100571.53
2023-02-19T16:48:10.908Z,100588.94
2023-02-19T16:53:26.245Z,100601.03
2023-02-19T16:58:29.470Z,100603.47
2023-02-19T17:03:32.717Z,100627.81
2023-02-19T17:08:38.889Z,100630.22
2023-02-19T17:13:42.688Z,100637.00
2023-02-19T17:18:45.870Z,100649.94
2023-02-19T17:23:48.773Z,100664.56
2023-02-19T17:28:51.791Z,100673.06
2023-02-19T17:33:55.543Z,100697.47
2023-02-19T17:39:03.841Z,100706.03
2023-02-19T17:44:07.247Z,100708.41
2023-02-19T17:49:15.625Z,100699.34
2023-02-19T17:54:28.488Z,100714.03
2023-02-19T17:59:32.385Z,100714.69
2023-02-19T18:04:37.014Z,100717.94
2023-02-19T18:09:41.838Z,100722.09
2023-02-19T18:14:48.452Z,100721.91
2023-02-19T18:19:54.794Z,100726.03
2023-02-19T18:24:58.928Z,100730.22
2023-02-19T18:30:02.257Z,100755.31
2023-02-19T18:35:05.564Z,100756.84
2023-02-19T18:40:10.801Z,100753.06
2023-02-19T18:45:15.523Z,100772.91
2023-02-19T18:50:20.634Z,100784.16
2023-02-19T18:55:26.458Z,100785.63
2023-02-19T19:00:30.601Z,100805.53
2023-02-19T19:05:36.636Z,100804.41
2023-02-19T19:10:40.667Z,100808.47
2023-02-19T19:15:46.125Z,100817.06
2023-02-19T19:20:52.938Z,100813.41
2023-02-19T19:25:57.193Z,100814.13
2023-02-19T19:31:01.546Z,100812.09
2023-02-19T19:36:06.262Z,100824.16
2023-02-19T19:41:12.140Z,100811.75
2023-02-19T19:46:22.111Z,100815.88
2023-02-19T19:51:25.542Z,100823.53
2023-02-19T19:56:29.337Z,100824.22
2023-02-19T20:01:33.776Z,100823.13
2023-02-19T20:06:37.023Z,100824.72
2023-02-19T20:11:54.779Z,100832.34
2023-02-19T20:17:00.542Z,100834.75
2023-02-19T20:22:03.595Z,100829.31
2023-02-19T20:27:06.683Z,100836.06
2023-02-19T20:32:15.850Z,100842.91
2023-02-19T20:37:19.075Z,100859.34
2023-02-19T20:42:23.037Z,100853.00
2023-02-19T20:47:26.978Z,100849.38
2023-02-19T20:52:30.488Z,100847.41
2023-02-19T20:57:33.341Z,100837.66
2023-02-19T21:02:36.848Z,100836.63
2023-02-19T21:07:40.513Z,100841.63
2023-02-19T21:12:43.554Z,100845.91
2023-02-19T21:17:49.632Z,100861.44
2023-02-19T21:22:54.937Z,100867.44
2023-02-19T21:28:00.909Z,100859.41
2023-02-19T21:33:04.683Z,100852.22
2023-02-19T21:38:09.460Z,100872.16
2023-02-19T21:43:14.155Z,100879.00
2023-02-19T21:48:18.113Z,100885.06
2023-02-19T21:53:21.528Z,100893.63
2023-02-19T21:58:25.224Z,100888.25
2023-02-19T22:03:28.466Z,100895.09
2023-02-19T22:08:30.394Z,100897.72
2023-02-19T22:13:32.519Z,100894.97
2023-02-19T22:18:34.956Z,100909.84
2023-02-19T22:23:37.179Z,100900.16
2023-02-19T22:28:39.765Z,100892.31
2023-02-19T22:33:41.892Z,100903.59
2023-02-19T22:38:44.407Z,100898.44
2023-02-19T22:43:47.434Z,100898.44
2023-02-19T22:48:51.223Z,100902.88
2023-02-19T22:53:56.934Z,100893.31
2023-02-19T22:58:59.416Z,100899.44
2023-02-19T23:04:02.360Z,100900.28
2023-02-19T23:09:10.533Z,100893.38
2023-02-19T23:14:16.088Z,100892.53
2023-02-19T23:19:18.255Z,100888.97
2023-02-19T23:24:21.316Z,100882.91
2023-02-19T23:29:26.491Z,100882.09
2023-02-19T23:34:29.237Z,100871.69
2023-02-19T23:39:31.356Z,100869.97
2023-02-19T23:44:34.258Z,100863.78
2023-02-19T23:49:36.438Z,100861.16
2023-02-19T23:54:39.799Z,100866.50
2023-02-19T23:59:41.932Z,100861.28
